Minster, Ohio
Current Conditions -  °F | °C
As of 9:33 AM on Saturday 22 Nov 2014 (Local Time) from KAXV Reporting Station
Overcast Overcast  
Wind Chill: 28°   Ceiling: 4900
Heat Index: 37°   Visibility: 10mi
Dew Point: 36°   Wind: 16mph
Humidity: 93%   Direction: 190°S
Pressure: 30.18"   Gusts: 22mph
Location:  40.39°N, 84.38°W
Report Text: KAXV 221433Z AUTO 19014G19KT 10SM OVC049 03/02 A3018 RMK AO2
Loading
Personal Weather Stations






























Interactive Weather Map New forecast layout! Learn more

10-Day Weather Forecast

Advertisements
Track Severe Weather on mobile